createdAt,value
2018-09-09T00:01:30.075Z,17.75
2018-09-09T00:03:58.355Z,17.75
2018-09-09T00:06:26.597Z,21.50
2018-09-09T00:08:54.933Z,19.25
2018-09-09T00:11:23.316Z,17.00
2018-09-09T00:13:52.732Z,18.75
2018-09-09T00:16:21.041Z,19.25
2018-09-09T00:18:49.342Z,23.00
2018-09-09T00:21:17.646Z,21.50
2018-09-09T00:23:45.946Z,18.25
2018-09-09T00:26:14.220Z,17.75
2018-09-09T00:28:43.110Z,19.75
2018-09-09T00:31:11.405Z,18.75
2018-09-09T00:33:39.700Z,19.50
2018-09-09T00:36:07.984Z,20.25
2018-09-09T00:38:36.283Z,20.50
2018-09-09T00:41:04.576Z,15.75
2018-09-09T00:43:32.879Z,18.50
2018-09-09T00:46:01.206Z,20.00
2018-09-09T00:48:29.495Z,20.75
2018-09-09T00:51:02.903Z,20.00
2018-09-09T00:53:36.341Z,18.75
2018-09-09T00:56:04.677Z,18.25
2018-09-09T00:58:32.966Z,22.00
2018-09-09T01:01:06.455Z,16.50
2018-09-09T01:03:36.525Z,20.75
2018-09-09T01:06:04.819Z,20.00
2018-09-09T01:08:33.082Z,20.50
2018-09-09T01:11:01.409Z,20.50
2018-09-09T01:13:29.711Z,20.75
2018-09-09T01:15:57.949Z,22.00
2018-09-09T01:18:26.292Z,18.75
2018-09-09T01:20:54.598Z,17.75
2018-09-09T01:23:22.894Z,19.75
2018-09-09T01:25:51.201Z,13.75
2018-09-09T01:28:19.461Z,19.25
2018-09-09T01:30:47.756Z,20.00
2018-09-09T01:33:16.080Z,17.00
2018-09-09T01:35:44.469Z,16.00
2018-09-09T01:38:12.760Z,19.50
2018-09-09T01:40:41.074Z,18.25
2018-09-09T01:43:09.351Z,17.00
2018-09-09T01:45:38.658Z,18.25
2018-09-09T01:48:06.933Z,19.50
2018-09-09T01:50:35.233Z,21.75
2018-09-09T01:53:03.663Z,16.50
2018-09-09T01:55:31.998Z,18.75
2018-09-09T01:58:00.341Z,19.25
2018-09-09T02:00:28.672Z,17.25
2018-09-09T02:02:56.958Z,17.50
2018-09-09T02:05:25.325Z,15.50
2018-09-09T02:07:53.651Z,18.75
2018-09-09T02:10:21.960Z,14.25
2018-09-09T02:12:50.248Z,18.25
2018-09-09T02:15:18.513Z,17.75
2018-09-09T02:17:46.758Z,15.00
2018-09-09T02:20:15.110Z,15.00
2018-09-09T02:22:43.439Z,14.75
2018-09-09T02:25:11.718Z,16.50
2018-09-09T02:27:40.038Z,18.25
2018-09-09T02:30:08.307Z,15.75
2018-09-09T02:32:36.626Z,15.50
2018-09-09T02:35:04.891Z,17.25
2018-09-09T02:37:33.200Z,18.25
2018-09-09T02:40:01.469Z,18.25
2018-09-09T02:42:29.786Z,17.25
2018-09-09T02:44:58.176Z,16.00
2018-09-09T02:47:26.474Z,17.00
2018-09-09T02:49:54.849Z,15.25
2018-09-09T02:52:23.162Z,17.25
2018-09-09T02:54:51.456Z,14.50
2018-09-09T02:57:19.736Z,18.00
2018-09-09T02:59:48.008Z,14.00
2018-09-09T03:02:16.282Z,14.00
2018-09-09T03:04:44.597Z,15.00
2018-09-09T03:07:13.816Z,18.25
2018-09-09T03:09:42.111Z,14.00
2018-09-09T03:12:10.407Z,14.00
2018-09-09T03:14:38.697Z,16.00
2018-09-09T03:17:07.007Z,20.00
2018-09-09T03:19:36.225Z,14.00
2018-09-09T03:22:04.492Z,17.50
2018-09-09T03:24:32.778Z,15.25
2018-09-09T03:27:01.070Z,15.00
2018-09-09T03:29:29.375Z,14.50
2018-09-09T03:31:57.668Z,15.00
2018-09-09T03:34:25.995Z,16.00
2018-09-09T03:36:54.294Z,16.00
2018-09-09T03:39:22.586Z,15.00
2018-09-09T03:41:50.877Z,12.75
2018-09-09T03:44:19.167Z,12.00
2018-09-09T03:46:47.455Z,15.50
2018-09-09T03:49:16.032Z,11.25
2018-09-09T03:51:44.339Z,12.75
2018-09-09T03:54:12.638Z,16.25
2018-09-09T03:56:40.950Z,15.00
2018-09-09T03:59:09.240Z,15.50
2018-09-09T04:01:37.520Z,18.00
2018-09-09T04:04:05.815Z,14.75
2018-09-09T04:06:34.103Z,16.50
2018-09-09T04:09:02.385Z,15.00
2018-09-09T04:11:30.685Z,14.50
2018-09-09T04:13:58.958Z,15.50
2018-09-09T04:16:27.268Z,15.00
2018-09-09T04:18:55.559Z,16.00
2018-09-09T04:21:23.876Z,16.00
2018-09-09T04:23:52.143Z,17.50
2018-09-09T04:26:20.454Z,18.00
2018-09-09T04:28:48.740Z,18.00
2018-09-09T04:31:17.042Z,15.00
2018-09-09T04:33:45.356Z,16.00
2018-09-09T04:36:13.636Z,15.50
2018-09-09T04:38:41.933Z,12.75
2018-09-09T04:41:10.187Z,15.25
2018-09-09T04:43:38.468Z,14.00
2018-09-09T04:46:06.831Z,15.50
2018-09-09T04:48:35.359Z,17.25
2018-09-09T04:51:03.647Z,13.75
2018-09-09T04:53:33.271Z,16.25
2018-09-09T04:56:01.591Z,14.25
2018-09-09T04:58:29.899Z,20.25
2018-09-09T05:00:58.197Z,16.50
2018-09-09T05:03:26.515Z,14.75
2018-09-09T05:05:54.819Z,17.00
2018-09-09T05:08:23.126Z,17.25
2018-09-09T05:10:51.428Z,17.50
2018-09-09T05:13:19.715Z,14.25
2018-09-09T05:15:49.039Z,15.00
2018-09-09T05:18:17.310Z,15.00
2018-09-09T05:20:45.596Z,19.00
2018-09-09T05:23:13.887Z,14.50
2018-09-09T05:25:42.193Z,20.25
2018-09-09T05:28:10.498Z,15.50
2018-09-09T05:30:38.792Z,13.25
2018-09-09T05:33:07.065Z,13.75
2018-09-09T05:35:35.365Z,14.25
2018-09-09T05:38:03.639Z,14.25
2018-09-09T05:40:31.945Z,15.50
2018-09-09T05:43:00.253Z,25.00
2018-09-09T05:45:28.647Z,15.50
2018-09-09T05:47:56.955Z,16.25
2018-09-09T05:50:25.265Z,15.50
2018-09-09T05:52:53.623Z,15.75
2018-09-09T05:55:21.936Z,15.00
2018-09-09T05:57:50.289Z,14.50
2018-09-09T06:00:18.624Z,17.25
2018-09-09T06:02:46.952Z,15.00
2018-09-09T06:05:15.260Z,17.25
2018-09-09T06:07:43.584Z,18.25
2018-09-09T06:10:11.902Z,17.75
2018-09-09T06:12:40.179Z,16.00
2018-09-09T06:15:08.522Z,15.25
2018-09-09T06:17:36.847Z,15.75
2018-09-09T06:20:05.169Z,16.50
2018-09-09T06:22:33.452Z,12.00
2018-09-09T06:25:01.920Z,14.00
2018-09-09T06:27:30.246Z,16.75
2018-09-09T06:29:58.827Z,16.75
2018-09-09T06:32:27.135Z,14.75
2018-09-09T06:34:55.775Z,19.75
2018-09-09T06:37:24.051Z,15.75
2018-09-09T06:39:52.339Z,15.00
2018-09-09T06:42:20.639Z,13.50
2018-09-09T06:44:48.959Z,19.75
2018-09-09T06:47:17.273Z,18.00
2018-09-09T06:49:45.604Z,15.50
2018-09-09T06:52:13.890Z,15.25
2018-09-09T06:54:42.253Z,15.75
2018-09-09T06:57:10.705Z,15.50
2018-09-09T06:59:39.043Z,15.00
2018-09-09T07:02:07.322Z,16.50
2018-09-09T07:04:35.633Z,16.25
2018-09-09T07:07:03.938Z,14.00
2018-09-09T07:09:32.166Z,18.00
2018-09-09T07:12:00.668Z,14.50
2018-09-09T07:14:28.775Z,15.50
2018-09-09T07:16:57.092Z,16.00
2018-09-09T07:19:26.298Z,15.75
2018-09-09T07:21:54.615Z,17.00
2018-09-09T07:24:22.930Z,16.00
2018-09-09T07:26:51.253Z,16.75
2018-09-09T07:29:19.591Z,15.50
2018-09-09T07:31:47.947Z,21.50
2018-09-09T07:34:16.310Z,15.50
2018-09-09T07:36:45.476Z,16.00
2018-09-09T07:39:13.788Z,17.75
2018-09-09T07:41:42.137Z,15.25
2018-09-09T07:44:10.467Z,15.75
2018-09-09T07:46:38.838Z,18.25
2018-09-09T07:49:07.220Z,17.75
2018-09-09T07:51:35.726Z,19.25
2018-09-09T07:54:04.038Z,16.75
2018-09-09T07:56:33.067Z,16.25
2018-09-09T07:59:01.383Z,19.00
2018-09-09T08:01:29.690Z,16.50
2018-09-09T08:03:58.003Z,17.00
2018-09-09T08:06:26.496Z,16.00
2018-09-09T08:08:54.864Z,15.25
2018-09-09T08:11:26.880Z,16.75
2018-09-09T08:13:55.210Z,13.50
2018-09-09T08:16:23.532Z,13.25
2018-09-09T08:18:51.821Z,13.25
2018-09-09T08:21:21.041Z,13.75
2018-09-09T08:23:49.376Z,16.50
2018-09-09T08:26:17.734Z,13.75
2018-09-09T08:28:46.040Z,14.50
2018-09-09T08:31:14.386Z,14.25
2018-09-09T08:33:42.688Z,13.75
2018-09-09T08:36:12.262Z,14.00
2018-09-09T08:38:40.816Z,14.25
2018-09-09T08:41:10.100Z,15.00
2018-09-09T08:43:38.712Z,12.00
2018-09-09T08:46:07.224Z,13.00
2018-09-09T08:48:41.327Z,11.75
2018-09-09T08:51:13.024Z,12.50
2018-09-09T08:53:42.030Z,13.00
2018-09-09T08:56:11.147Z,12.00
2018-09-09T08:58:41.289Z,11.00
2018-09-09T09:01:09.613Z,12.00
2018-09-09T09:03:37.942Z,10.50
2018-09-09T09:06:06.272Z,11.50
2018-09-09T09:08:34.596Z,11.50
2018-09-09T09:11:02.872Z,9.00
2018-09-09T09:13:31.188Z,10.50
2018-09-09T09:15:59.473Z,8.50
2018-09-09T09:18:27.850Z,11.75
2018-09-09T09:20:56.321Z,9.50
2018-09-09T09:23:24.648Z,9.00
2018-09-09T09:25:54.139Z,10.50
2018-09-09T09:28:23.391Z,11.00
2018-09-09T09:30:52.518Z,11.50
2018-09-09T09:33:20.886Z,8.50
2018-09-09T09:35:51.442Z,8.50
2018-09-09T09:38:21.035Z,8.00
2018-09-09T09:40:49.641Z,7.00
2018-09-09T09:43:17.952Z,6.00
2018-09-09T09:45:46.288Z,5.00
2018-09-09T09:48:14.714Z,6.00
2018-09-09T09:50:43.095Z,5.00
2018-09-09T09:53:11.395Z,6.00
2018-09-09T09:55:39.822Z,3.75
2018-09-09T09:58:08.128Z,3.00
2018-09-09T10:00:43.668Z,3.00
2018-09-09T10:03:12.035Z,6.00
2018-09-09T10:05:40.332Z,5.00
2018-09-09T10:08:08.645Z,3.00
2018-09-09T10:10:37.379Z,3.50
2018-09-09T10:13:05.973Z,4.00
2018-09-09T10:15:34.259Z,5.25
2018-09-09T10:18:02.572Z,5.50
2018-09-09T10:20:30.920Z,6.00
2018-09-09T10:22:59.203Z,4.75
2018-09-09T10:25:27.511Z,4.25
2018-09-09T10:27:56.692Z,5.25
2018-09-09T10:30:24.984Z,3.00
2018-09-09T10:32:53.250Z,4.00
2018-09-09T10:35:21.523Z,4.00
2018-09-09T10:37:49.833Z,4.00
2018-09-09T10:40:18.100Z,4.50
2018-09-09T10:42:46.384Z,6.00
2018-09-09T10:45:15.253Z,5.00
2018-09-09T10:47:43.657Z,4.00
2018-09-09T10:50:11.984Z,4.00
2018-09-09T10:52:40.244Z,4.50
2018-09-09T10:55:08.547Z,6.00
2018-09-09T10:57:36.872Z,6.00
2018-09-09T11:00:06.168Z,5.50
2018-09-09T11:02:36.315Z,6.00
2018-09-09T11:05:04.667Z,4.00
2018-09-09T11:07:32.942Z,4.00
2018-09-09T11:10:01.255Z,7.00
2018-09-09T11:12:30.896Z,6.00
2018-09-09T11:15:00.559Z,7.00
2018-09-09T11:17:30.668Z,6.00
2018-09-09T11:19:59.429Z,6.00
2018-09-09T11:22:28.499Z,4.00
2018-09-09T11:24:56.779Z,6.25
2018-09-09T11:27:25.483Z,6.00
2018-09-09T11:29:53.804Z,6.00
2018-09-09T11:32:22.024Z,7.00
2018-09-09T11:34:50.299Z,6.25
2018-09-09T11:37:18.536Z,6.50
2018-09-09T11:39:46.844Z,4.00
2018-09-09T11:42:15.122Z,6.00
2018-09-09T11:44:43.439Z,7.00
2018-09-09T11:47:11.723Z,6.00
2018-09-09T11:49:40.026Z,6.00
2018-09-09T11:52:08.298Z,7.00
2018-09-09T11:54:37.908Z,7.00
2018-09-09T11:57:06.183Z,6.50
2018-09-09T11:59:34.481Z,6.25
2018-09-09T12:02:02.823Z,6.00
2018-09-09T12:04:31.089Z,7.00
2018-09-09T12:06:59.643Z,7.00
2018-09-09T12:09:27.967Z,6.25
2018-09-09T12:11:56.235Z,4.00
2018-09-09T12:14:24.578Z,4.00
2018-09-09T12:16:52.947Z,6.00
2018-09-09T12:19:21.211Z,5.00
2018-09-09T12:21:49.498Z,5.00
2018-09-09T12:24:17.763Z,4.00
2018-09-09T12:26:46.070Z,6.50
2018-09-09T12:29:14.331Z,5.00
2018-09-09T12:31:42.620Z,5.00
2018-09-09T12:34:10.900Z,4.75
2018-09-09T12:36:39.194Z,3.75
2018-09-09T12:39:08.465Z,4.00
2018-09-09T12:41:36.917Z,3.75
2018-09-09T12:44:10.482Z,3.50
2018-09-09T12:46:44.032Z,3.75
2018-09-09T12:49:12.331Z,4.00
2018-09-09T12:51:40.624Z,4.50
2018-09-09T12:54:08.907Z,4.00
2018-09-09T12:56:37.184Z,3.00
2018-09-09T12:59:05.549Z,4.00
2018-09-09T13:01:33.844Z,2.50
2018-09-09T13:04:02.120Z,3.75
2018-09-09T13:06:30.399Z,4.75
2018-09-09T13:08:58.674Z,4.00
2018-09-09T13:11:26.975Z,3.75
2018-09-09T13:13:55.220Z,3.75
2018-09-09T13:16:23.511Z,4.00
2018-09-09T13:18:51.806Z,4.00
2018-09-09T13:21:20.187Z,4.00
2018-09-09T13:23:48.469Z,4.00
2018-09-09T13:26:16.872Z,3.75
2018-09-09T13:28:45.091Z,3.25
2018-09-09T13:31:13.340Z,3.00
2018-09-09T13:33:41.664Z,4.00
2018-09-09T13:36:09.950Z,3.00
2018-09-09T13:38:38.248Z,4.00
2018-09-09T13:41:06.565Z,4.00
2018-09-09T13:43:38.243Z,5.00
2018-09-09T13:46:08.888Z,4.00
2018-09-09T13:48:37.312Z,5.00
2018-09-09T13:51:05.788Z,4.25
2018-09-09T13:53:34.142Z,5.00
2018-09-09T13:56:02.441Z,3.75
2018-09-09T13:58:30.746Z,5.00
2018-09-09T14:00:59.095Z,5.00
2018-09-09T14:03:27.387Z,5.00
2018-09-09T14:05:55.708Z,5.50
2018-09-09T14:08:24.018Z,3.75
2018-09-09T14:10:52.348Z,5.50
2018-09-09T14:13:20.615Z,4.00
2018-09-09T14:15:48.890Z,4.50
2018-09-09T14:18:17.244Z,4.25
2018-09-09T14:20:45.538Z,4.00
2018-09-09T14:23:13.809Z,4.00
2018-09-09T14:25:42.096Z,4.00
2018-09-09T14:28:10.391Z,4.00
2018-09-09T14:30:38.665Z,4.25
2018-09-09T14:33:06.955Z,4.00
2018-09-09T14:35:35.282Z,3.50
2018-09-09T14:38:04.056Z,4.00
2018-09-09T14:40:33.264Z,4.25
2018-09-09T14:43:01.541Z,4.00
2018-09-09T14:45:29.814Z,4.00
2018-09-09T14:47:58.155Z,3.00
2018-09-09T14:50:26.952Z,4.00
2018-09-09T14:52:55.251Z,3.75
2018-09-09T14:55:24.247Z,3.25
2018-09-09T14:57:52.577Z,4.50
2018-09-09T15:00:20.931Z,4.00
2018-09-09T15:02:49.226Z,4.00
2018-09-09T15:05:17.569Z,4.00
2018-09-09T15:07:46.089Z,4.00
2018-09-09T15:10:14.399Z,3.75
2018-09-09T15:12:42.751Z,4.00
2018-09-09T15:15:11.368Z,3.50
2018-09-09T15:17:39.693Z,3.75
2018-09-09T15:20:08.095Z,3.00
2018-09-09T15:22:36.455Z,3.25
2018-09-09T15:25:05.409Z,4.00
2018-09-09T15:27:33.840Z,4.00
2018-09-09T15:30:02.211Z,3.50
2018-09-09T15:32:30.551Z,4.00
2018-09-09T15:34:58.953Z,4.00
2018-09-09T15:37:27.300Z,3.25
2018-09-09T15:39:56.713Z,4.00
2018-09-09T15:42:25.040Z,3.00
2018-09-09T15:44:53.383Z,3.00
2018-09-09T15:47:21.765Z,3.75
2018-09-09T15:49:50.545Z,3.75
2018-09-09T15:52:19.828Z,3.00
2018-09-09T15:54:48.104Z,4.00
2018-09-09T15:57:16.400Z,3.50
2018-09-09T15:59:44.713Z,3.50
2018-09-09T16:02:13.075Z,3.00
2018-09-09T16:04:42.512Z,4.00
2018-09-09T16:07:10.921Z,4.00
2018-09-09T16:09:39.155Z,3.75
2018-09-09T16:12:07.491Z,3.75
2018-09-09T16:14:35.795Z,4.00
2018-09-09T16:17:04.114Z,4.00
2018-09-09T16:19:32.418Z,4.00
2018-09-09T16:22:00.733Z,3.00
2018-09-09T16:24:29.060Z,4.00
2018-09-09T16:26:58.347Z,3.00
2018-09-09T16:29:26.587Z,3.00
2018-09-09T16:31:54.913Z,3.00
2018-09-09T16:34:23.182Z,4.00
2018-09-09T16:36:51.624Z,3.75
2018-09-09T16:39:19.921Z,3.75
2018-09-09T16:41:48.204Z,5.75
2018-09-09T16:44:18.391Z,5.75
2018-09-09T16:46:46.768Z,13.00
2018-09-09T16:49:16.104Z,15.25
2018-09-09T16:51:44.411Z,12.25
2018-09-09T16:54:12.717Z,7.00
2018-09-09T16:56:40.999Z,5.75
2018-09-09T16:59:09.340Z,7.50
2018-09-09T17:01:37.630Z,6.00
2018-09-09T17:04:05.985Z,4.50
2018-09-09T17:06:34.298Z,6.75
2018-09-09T17:09:02.590Z,4.50
2018-09-09T17:11:30.862Z,5.50
2018-09-09T17:13:59.163Z,6.00
2018-09-09T17:16:27.471Z,6.00
2018-09-09T17:18:55.756Z,6.00
2018-09-09T17:21:24.059Z,5.50
2018-09-09T17:23:52.335Z,4.00
2018-09-09T17:26:20.667Z,4.00
2018-09-09T17:28:48.988Z,5.50
2018-09-09T17:31:17.331Z,5.50
2018-09-09T17:33:45.635Z,4.00
2018-09-09T17:36:13.905Z,4.00
2018-09-09T17:38:42.219Z,4.00
2018-09-09T17:41:10.508Z,3.75
2018-09-09T17:43:38.861Z,4.00
2018-09-09T17:46:09.221Z,3.75
2018-09-09T17:48:37.650Z,4.00
2018-09-09T17:51:06.949Z,4.75
2018-09-09T17:53:35.787Z,4.75
2018-09-09T17:56:04.435Z,4.75
2018-09-09T17:58:33.000Z,6.25
2018-09-09T18:01:01.344Z,6.25
2018-09-09T18:03:31.632Z,5.50
2018-09-09T18:05:59.962Z,6.00
2018-09-09T18:08:28.828Z,6.25
2018-09-09T18:10:57.180Z,7.00
2018-09-09T18:13:25.455Z,6.00
2018-09-09T18:15:54.672Z,7.00
2018-09-09T18:18:23.997Z,7.25
2018-09-09T18:20:52.829Z,6.50
2018-09-09T18:23:21.136Z,6.25
2018-09-09T18:25:51.100Z,6.75
2018-09-09T18:28:19.598Z,5.25
2018-09-09T18:30:47.981Z,7.00
2018-09-09T18:33:16.629Z,6.00
2018-09-09T18:35:45.728Z,5.75
2018-09-09T18:38:15.387Z,6.00
2018-09-09T18:40:43.755Z,6.50
2018-09-09T18:43:12.065Z,6.00
2018-09-09T18:45:40.464Z,6.25
2018-09-09T18:48:09.065Z,7.00
2018-09-09T18:50:38.537Z,7.00
2018-09-09T18:53:06.924Z,5.50
2018-09-09T18:55:43.439Z,6.25
2018-09-09T19:00:52.107Z,9.25
2018-09-09T19:06:25.554Z,8.00
2018-09-09T19:08:54.319Z,7.00
2018-09-09T19:11:23.870Z,8.75
2018-09-09T19:14:01.618Z,8.50
2018-09-09T19:16:36.746Z,7.00
2018-09-09T19:19:05.141Z,9.25
2018-09-09T19:21:33.772Z,7.00
2018-09-09T19:24:06.439Z,7.00
2018-09-09T19:26:35.177Z,9.00
2018-09-09T19:29:03.656Z,7.75
2018-09-09T19:31:32.348Z,9.00
2018-09-09T19:34:01.212Z,8.75
2018-09-09T19:36:33.280Z,9.00
2018-09-09T19:39:02.191Z,8.50
2018-09-09T19:41:30.609Z,11.75
2018-09-09T19:44:00.082Z,8.25
2018-09-09T19:46:29.528Z,10.50
2018-09-09T19:49:03.154Z,9.75
2018-09-09T19:51:31.539Z,9.50
2018-09-09T19:53:59.922Z,8.25
2018-09-09T19:56:28.307Z,10.00
2018-09-09T19:58:57.315Z,8.50
2018-09-09T20:01:25.899Z,10.00
2018-09-09T20:03:54.226Z,9.50
2018-09-09T20:06:22.562Z,8.75
2018-09-09T20:08:50.868Z,10.50
2018-09-09T20:11:20.064Z,8.75
2018-09-09T20:13:48.356Z,9.00
2018-09-09T20:16:16.692Z,10.00
2018-09-09T20:18:45.894Z,9.00
2018-09-09T20:21:14.193Z,9.00
2018-09-09T20:23:44.533Z,9.00
2018-09-09T20:26:12.874Z,8.00
2018-09-09T20:28:41.225Z,8.50
2018-09-09T20:31:09.602Z,8.25
2018-09-09T20:33:37.936Z,9.50
2018-09-09T20:36:07.467Z,10.75
2018-09-09T20:38:35.762Z,8.00
2018-09-09T20:41:22.070Z,9.00
2018-09-09T20:50:02.531Z,6.50
2018-09-09T20:52:32.764Z,5.75
2018-09-09T20:55:09.419Z,5.25
2018-09-09T20:57:39.911Z,6.50
2018-09-09T21:00:20.523Z,6.00
2018-09-09T21:02:53.472Z,5.00
2018-09-09T21:05:24.798Z,4.50
2018-09-09T21:08:11.035Z,5.00
2018-09-09T21:10:42.494Z,6.00
2018-09-09T21:13:15.575Z,7.00
2018-09-09T21:15:49.228Z,6.00
2018-09-09T21:18:17.559Z,6.50
2018-09-09T21:20:45.943Z,5.50
2018-09-09T21:23:21.734Z,5.00
2018-09-09T21:25:50.046Z,8.00
2018-09-09T21:28:18.396Z,5.00
2018-09-09T21:30:46.738Z,6.50
2018-09-09T21:33:15.066Z,7.00
2018-09-09T21:35:45.362Z,7.00
2018-09-09T21:38:13.725Z,8.00
2018-09-09T21:40:42.209Z,6.00
2018-09-09T21:43:11.066Z,8.00
2018-09-09T21:45:39.423Z,5.00
2018-09-09T21:48:07.758Z,8.00
2018-09-09T21:50:36.156Z,7.50
2018-09-09T21:53:04.486Z,5.00
2018-09-09T21:55:32.808Z,5.75
2018-09-09T21:58:01.119Z,8.50
2018-09-09T22:00:29.463Z,9.00
2018-09-09T22:02:57.754Z,7.50
2018-09-09T22:05:26.085Z,9.00
2018-09-09T22:07:54.440Z,9.75
2018-09-09T22:10:22.792Z,9.25
2018-09-09T22:12:51.104Z,9.00
2018-09-09T22:15:19.426Z,8.50
2018-09-09T22:17:47.720Z,8.25
2018-09-09T22:20:16.065Z,8.00
2018-09-09T22:22:44.451Z,7.50
2018-09-09T22:25:12.778Z,8.00
2018-09-09T22:27:41.098Z,8.50
2018-09-09T22:30:09.427Z,6.50
2018-09-09T22:32:37.783Z,8.75
2018-09-09T22:35:06.413Z,8.00
2018-09-09T22:37:39.994Z,8.00
2018-09-09T22:40:09.526Z,9.00
2018-09-09T22:42:43.458Z,8.00
2018-09-09T22:45:14.577Z,7.50
2018-09-09T22:47:47.072Z,8.00
2018-09-09T22:50:15.781Z,8.00
2018-09-09T22:52:45.508Z,7.00
2018-09-09T22:55:13.908Z,7.25
2018-09-09T22:57:42.361Z,7.75
2018-09-09T23:00:10.984Z,7.75
2018-09-09T23:02:40.220Z,8.00
2018-09-09T23:05:08.663Z,8.00
2018-09-09T23:07:38.088Z,8.00
2018-09-09T23:10:06.548Z,7.75
2018-09-09T23:12:34.957Z,7.50
2018-09-09T23:15:03.680Z,8.00
2018-09-09T23:17:32.767Z,8.50
2018-09-09T23:20:02.226Z,7.75
2018-09-09T23:22:30.647Z,7.00
2018-09-09T23:24:59.191Z,8.00
2018-09-09T23:27:27.784Z,7.25
2018-09-09T23:29:56.392Z,8.50
2018-09-09T23:32:25.363Z,8.00
2018-09-09T23:34:53.831Z,8.75
2018-09-09T23:37:22.263Z,8.50
2018-09-09T23:39:50.699Z,9.25
2018-09-09T23:42:19.227Z,8.00
2018-09-09T23:44:47.597Z,8.50
2018-09-09T23:47:15.952Z,11.00
2018-09-09T23:49:44.343Z,8.25
2018-09-09T23:52:12.739Z,9.75
2018-09-09T23:54:41.149Z,9.00
2018-09-09T23:57:09.792Z,10.50
2018-09-09T23:59:38.493Z,9.75
